• Join FlightAware (Why Join?)
  • Login
  • US Flag 
10:05PM EDT


 

Airport Tracker/Info


-or-


 

Live Flight TrackerFlight Track Log ✈ AEE620 ✈ 24-Sep-2013 ✈ LGAV / ATH - EBBR / BRU

Flight Track Log - Related Links

Times and Time Zones

All times are in EDT time to prevent confusion due to time zone crossing. See the AEE620 flight status page for this flight to view local times or setup timezone preferences in your user account.

Time Position Orientation Groundspeed Altitude Reporting Facility
EDT Latitude Longitude Course Direction KTS MPH feet Rate Location/Type
02:07AM 38.6649 23.1463 320° Northwest  Level Estimated
02:08AM 38.7455 23.0566 319° Northwest  Level Estimated
02:09AM 38.8261 22.9667 319° Northwest  Level Estimated
02:10AM 38.9066 22.8766 319° Northwest  Level Estimated
02:11AM 38.9870 22.7863 319° Northwest  Level Estimated
02:12AM 39.0673 22.6958 319° Northwest  Level Estimated
02:13AM 39.1476 22.6051 319° Northwest  Level Estimated
02:14AM 39.2278 22.5142 319° Northwest  Level Estimated
02:15AM 39.3079 22.4230 319° Northwest  Level Estimated
02:16AM 39.3880 22.3317 319° Northwest  Level Estimated
02:17AM 39.4679 22.2402 319° Northwest  Level Estimated
02:18AM 39.5479 22.1484 318° Northwest  Level Estimated
02:19AM 39.6277 22.0564 318° Northwest  Level Estimated
02:20AM 39.7075 21.9643 318° Northwest  Level Estimated
02:21AM 39.7872 21.8719 318° Northwest  Level Estimated
02:22AM 39.8668 21.7793 318° Northwest  Level Estimated
02:23AM 39.9463 21.6864 318° Northwest  Level Estimated
02:24AM 40.0258 21.5934 318° Northwest  Level Estimated
02:25AM 40.1052 21.5002 318° Northwest  Level Estimated
02:26AM 40.1845 21.4067 318° Northwest  Level Estimated
02:27AM 40.2638 21.3130 318° Northwest  Level Estimated
02:28AM 40.3429 21.2191 318° Northwest  Level Estimated
02:29AM 40.4220 21.1250 318° Northwest  Level Estimated
02:30AM 40.5011 21.0306 318° Northwest  Level Estimated
02:31AM 40.5800 20.9360 318° Northwest  Level Estimated
02:32AM 40.6589 20.8412 318° Northwest  Level Estimated
02:33AM 40.7377 20.7462 318° Northwest  Level Estimated
02:34AM 40.8164 20.6510 318° Northwest  Level Estimated
02:35AM 40.8950 20.5555 317° Northwest  Level Estimated
02:36AM 40.9735 20.4598 317° Northwest  Level Estimated
02:37AM 41.0520 20.3639 317° Northwest  Level Estimated
02:38AM 41.1304 20.2677 317° Northwest  Level Estimated
02:39AM 41.2087 20.1713 317° Northwest  Level Estimated
02:40AM 41.2869 20.0747 317° Northwest  Level Estimated
02:41AM 41.3651 19.9778 317° Northwest  Level Estimated
02:42AM 41.4432 19.8808 317° Northwest  Level Estimated
02:43AM 41.5211 19.7834 317° Northwest  Level Estimated
02:44AM 41.5991 19.6859 317° Northwest  Level Estimated
02:45AM 41.6769 19.5881 317° Northwest  Level Estimated
02:46AM 41.7546 19.4901 317° Northwest  Level Estimated
02:47AM 41.8323 19.3918 317° Northwest  Level Estimated
02:48AM 41.9099 19.2933 317° Northwest  Level Estimated
02:49AM 41.9873 19.1946 317° Northwest  Level Estimated
02:50AM 42.0647 19.0956 317° Northwest  Level Estimated
02:51AM 42.1421 18.9964 316° Northwest  Level Estimated
02:52AM 42.2193 18.8969 316° Northwest  Level Estimated
02:53AM 42.2964 18.7972 316° Northwest  Level Estimated
02:54AM 42.3735 18.6973 316° Northwest  Level Estimated
02:55AM 42.4505 18.5971 316° Northwest  Level Estimated
02:56AM 42.5274 18.4966 316° Northwest  Level Estimated
02:57AM 42.6041 18.3959 316° Northwest  Level Estimated
02:58AM 42.6809 18.2950 316° Northwest  Level Estimated
02:59AM 42.7575 18.1938 316° Northwest  Level Estimated
03:00AM 42.8340 18.0924 316° Northwest  Level Estimated
03:01AM 42.9104 17.9907 316° Northwest  Level Estimated
03:02AM 42.9868 17.8887 316° Northwest  Level Estimated
03:03AM 43.0631 17.7865 316° Northwest  Level Estimated
03:04AM 43.1392 17.6841 316° Northwest  Level Estimated
03:05AM 43.2153 17.5814 315° West  Level Estimated
03:06AM 43.2913 17.4784 315° West  Level Estimated
03:07AM 43.3672 17.3752 315° West  Level Estimated
03:08AM 43.4430 17.2717 315° West  Level Estimated
03:09AM 43.5187 17.1680 315° West  Level Estimated
03:10AM 43.5943 17.0640 315° West  Level Estimated
03:11AM 43.6698 16.9597 315° West  Level Estimated
03:12AM 43.7452 16.8552 315° West  Level Estimated
03:13AM 43.8206 16.7504 315° West  Level Estimated
03:14AM 43.8958 16.6454 315° West  Level Estimated
03:15AM 43.9709 16.5400 315° West  Level Estimated
03:16AM 44.0460 16.4345 315° West  Level Estimated
03:17AM 44.1209 16.3286 315° West  Level Estimated
03:18AM 44.1958 16.2225 315° West  Level Estimated
03:19AM 44.2705 16.1161 314° West  Level Estimated
03:20AM 44.3451 16.0094 314° West  Level Estimated
03:21AM 44.4197 15.9025 314° West  Level Estimated
03:22AM 44.4941 15.7953 314° West  Level Estimated
03:23AM 44.5685 15.6878 314° West  Level Estimated
03:24AM 44.6427 15.5801 314° West  Level Estimated
03:25AM 44.7168 15.4720 314° West  Level Estimated
03:26AM 44.7909 15.3637 314° West  Level Estimated
03:27AM 44.8648 15.2552 314° West  Level Estimated
03:28AM 44.9386 15.1463 314° West  Level Estimated
03:29AM 45.0124 15.0372 314° West  Level Estimated
03:30AM 45.0860 14.9277 314° West  Level Estimated
03:31AM 45.1595 14.8180 314° West  Level Estimated
03:32AM 45.2329 14.7080 313° West  Level Estimated
03:33AM 45.3063 14.5978 313° West  Level Estimated
03:34AM 45.3795 14.4872 313° West  Level Estimated
03:35AM 45.4525 14.3764 313° West  Level Estimated
03:36AM 45.5255 14.2652 313° West  Level Estimated
03:37AM 45.5984 14.1538 313° West  Level Estimated
03:38AM 45.6712 14.0421 313° West  Level Estimated
03:39AM 45.7439 13.9301 313° West  Level Estimated
03:40AM 45.8164 13.8178 313° West  Level Estimated
03:41AM 45.8888 13.7052 313° West  Level Estimated
03:42AM 45.9612 13.5923 313° West  Level Estimated
03:43AM 46.0334 13.4792 313° West  Level Estimated
03:44AM 46.1055 13.3657 313° West  Level Estimated
03:45AM 46.1775 13.2519 312° West  Level Estimated
03:46AM 46.2494 13.1378 312° West  Level Estimated
03:47AM 46.3212 13.0235 312° West  Level Estimated
03:48AM 46.3928 12.9088 312° West  Level Estimated
03:49AM 46.4644 12.7938 312° West  Level Estimated
03:50AM 46.5358 12.6786 312° West  Level Estimated
03:51AM 46.6071 12.5630 312° West  Level Estimated
03:52AM 46.6783 12.4471 312° West  Level Estimated
03:53AM 46.7493 12.3309 312° West  Level Estimated
03:54AM 46.8203 12.2144 312° West  Level Estimated
03:55AM 46.8911 12.0976 312° West  Level Estimated
03:56AM 46.9619 11.9805 312° West  Level Estimated
03:57AM 47.0325 11.8631 311° West  Level Estimated
03:58AM 47.1029 11.7454 311° West  Level Estimated
03:59AM 47.1733 11.6273 311° West  Level Estimated
04:00AM 47.2435 11.5090 311° West  Level Estimated
04:01AM 47.3136 11.3903 311° West  Level Estimated
04:02AM 47.3836 11.2714 311° West  Level Estimated
04:03AM 47.4535 11.1521 311° West  Level Estimated
04:04AM 47.5233 11.0324 311° West  Level Estimated
04:05AM 47.5929 10.9125 311° West  Level Estimated
04:06AM 47.6624 10.7923 311° West  Level Estimated
04:07AM 47.7317 10.6717 311° West  Level Estimated
04:08AM 47.8010 10.5508 310° West  Level Estimated
04:09AM 47.8701 10.4296 310° West  Level Estimated
04:10AM 47.9391 10.3081 310° West  Level Estimated
04:11AM 48.0079 10.1862 310° West  Level Estimated
04:12AM 48.0767 10.0640 310° West  Level Estimated
04:13AM 48.1453 9.9415 310° West  Level Estimated
04:14AM 48.2137 9.8187 310° West  Level Estimated
04:15AM 48.2821 9.6955 310° West  Level Estimated
04:16AM 48.3503 9.5720 310° West  Level Estimated
04:17AM 48.4184 9.4482 310° West  Level Estimated
04:18AM 48.4863 9.3240 310° West  Level Estimated
04:19AM 48.5541 9.1995 309° West  Level Estimated
04:20AM 48.6218 9.0747 309° West  Level Estimated
04:21AM 48.6893 8.9495 309° West  Level Estimated
04:22AM 48.7567 8.8240 309° West  Level Estimated
04:23AM 48.8240 8.6982 309° West  Level Estimated
04:24AM 48.8911 8.5720 309° West  Level Estimated
04:25AM 48.9581 8.4455 309° West  Level Estimated
04:26AM 49.0249 8.3186 309° West  Level Estimated
04:27AM 49.0916 8.1914 309° West  Level Estimated
04:28AM 49.1582 8.0639 309° West  Level Estimated
04:29AM 49.2247 7.9360 309° West  Level Estimated
04:30AM 49.2909 7.8078 308° West  Level Estimated
04:31AM 49.3571 7.6792 308° West  Level Estimated
04:32AM 49.4231 7.5503 308° West  Level Estimated
04:33AM 49.4889 7.4211 308° West  Level Estimated
04:34AM 49.5546 7.2914 308° West  Level Estimated
04:35AM 49.6202 7.1615 308° West  Level Estimated
04:36AM 49.6856 7.0312 308° West  Level Estimated
04:37AM 49.7509 6.9005 308° West  Level Estimated
04:38AM 49.8161 6.7695 308° West  Level Estimated
04:39AM 49.8810 6.6381 308° West  Level Estimated
04:40AM 49.9459 6.5064 307° West  Level Estimated
04:41AM 50.0105 6.3744 307° West  Level Estimated
04:42AM 50.0751 6.2419 307° West  Level Estimated
04:43AM 50.1395 6.1091 307° West  Level Estimated
04:44AM 50.2037 5.9760 307° West  Level Estimated
04:45AM 50.2678 5.8425 307° West  Level Estimated
04:46AM 50.3317 5.7086 307° West  Level Estimated
04:47AM 50.3955 5.5744 307° West  Level Estimated
04:48AM 50.4591 5.4398 307° West  Level Estimated
04:49AM 50.5225 5.3049 307° West  Level Estimated
04:50AM 50.5858 5.1696 306° West  Level Estimated
04:51AM 50.6490 5.0339 306° West  Level Estimated
04:52AM 50.7120 4.8979 306° West  Level Estimated
04:53AM 50.7748 4.7615 306° West  Level Estimated
04:54AM 50.8375 4.6247 306° West  Level Estimated
04:55AM 50.9000 4.4876 306° West  Level Estimated
04:56AM 50.9014 4.4844 306° West  Level Estimated
04:57AM 50.9014 4.4844 112° Southeast  Level Estimated
04:58AM 50.9014 4.4844 112° Southeast  Level Estimated